Time;durP1;ratioP1;P1;durP2;ratioP2;P2;SDS_P1;SDS_P2;PMS_P1;PMS_P2;Temp;Humidity;BMP_temperature;BMP_pressure;BME280_temperature;BME280_humidity;BME280_pressure;Samples;Min_cycle;Max_cycle;Signal;HPM_P1;HPM_P2
2021/11/29 00:02:21;;;;;;;20.00;9.57;;;5.10;99.90;;;;;;5026801;28;20195;-68
2021/11/29 00:04:49;;;;;;;19.13;8.77;;;5.10;99.90;;;;;;5026034;28;20230;-68
2021/11/29 00:07:16;;;;;;;17.80;7.90;;;5.10;99.90;;;;;;5027544;28;20517;-68
2021/11/29 00:09:43;;;;;;;19.30;7.70;;;5.10;99.90;;;;;;5026662;28;20195;-70
2021/11/29 00:12:11;;;;;;;20.73;8.53;;;5.10;99.90;;;;;;5026736;28;20289;-69
2021/11/29 00:14:38;;;;;;;19.27;7.87;;;5.10;99.90;;;;;;5027299;28;20190;-69
2021/11/29 00:17:05;;;;;;;16.07;7.80;;;5.10;99.90;;;;;;5026734;28;20286;-69
2021/11/29 00:19:33;;;;;;;21.73;8.90;;;5.10;99.90;;;;;;5130575;27;20290;-69
2021/11/29 00:22:00;;;;;;;19.83;8.87;;;5.10;99.90;;;;;;5130343;27;20214;-69
2021/11/29 00:24:27;;;;;;;23.63;9.00;;;5.10;99.90;;;;;;5129874;27;20202;-69
2021/11/29 00:26:55;;;;;;;17.97;7.57;;;5.00;99.90;;;;;;5130855;27;20183;-69
2021/11/29 00:29:22;;;;;;;15.83;7.83;;;5.00;99.90;;;;;;5130091;27;20277;-70
2021/11/29 00:31:49;;;;;;;15.70;7.67;;;5.10;99.90;;;;;;5129988;27;20183;-69
2021/11/29 00:34:16;;;;;;;14.37;7.07;;;5.10;99.90;;;;;;5129845;27;20183;-69
2021/11/29 00:36:44;;;;;;;17.77;7.37;;;5.10;99.90;;;;;;5129422;27;20216;-69
2021/11/29 00:39:11;;;;;;;15.00;7.47;;;5.10;99.90;;;;;;5131316;27;20261;-69
2021/11/29 00:41:38;;;;;;;12.67;7.00;;;5.10;99.90;;;;;;5129824;27;20190;-68
2021/11/29 00:44:06;;;;;;;13.67;6.80;;;5.10;99.90;;;;;;5129960;27;20275;-68
2021/11/29 00:46:33;;;;;;;13.37;6.37;;;5.10;99.90;;;;;;5129149;27;20269;-68
2021/11/29 00:49:00;;;;;;;13.40;6.50;;;5.10;99.90;;;;;;5129435;27;20549;-69
2021/11/29 00:51:27;;;;;;;12.63;6.30;;;5.10;99.90;;;;;;5131134;27;20194;-69
2021/11/29 00:53:55;;;;;;;13.63;6.50;;;5.10;99.90;;;;;;5129698;27;20281;-69
2021/11/29 00:56:22;;;;;;;10.83;6.10;;;5.10;99.90;;;;;;5129328;27;20375;-69
2021/11/29 00:58:50;;;;;;;14.73;6.87;;;5.10;99.90;;;;;;5129183;27;20199;-68
2021/11/29 01:01:18;;;;;;;14.40;6.60;;;5.10;99.90;;;;;;5129805;27;20732;-68
2021/11/29 01:03:45;;;;;;;14.27;6.30;;;5.20;99.90;;;;;;5129416;27;20227;-68
2021/11/29 01:06:12;;;;;;;13.63;5.87;;;5.20;99.90;;;;;;5129160;27;20310;-69
2021/11/29 01:08:40;;;;;;;10.07;5.57;;;5.20;99.90;;;;;;5130441;27;20187;-69
2021/11/29 01:11:09;;;;;;;10.70;5.70;;;5.20;99.90;;;;;;5131191;27;20569;-70
2021/11/29 01:13:37;;;;;;;10.83;5.60;;;5.20;99.90;;;;;;5129593;28;20223;-69
2021/11/29 01:16:05;;;;;;;12.53;5.90;;;5.30;99.90;;;;;;5129079;28;20232;-70
2021/11/29 01:18:33;;;;;;;11.57;6.17;;;5.30;99.90;;;;;;5130734;27;20215;-68
2021/11/29 01:21:02;;;;;;;11.83;5.70;;;5.30;99.90;;;;;;5129566;28;20187;-69
2021/11/29 01:23:31;;;;;;;14.83;6.73;;;5.30;99.90;;;;;;5130924;27;20184;-68
2021/11/29 01:26:01;;;;;;;11.90;6.33;;;5.40;99.90;;;;;;5130399;27;20318;-68
2021/11/29 01:28:30;;;;;;;11.27;5.60;;;5.40;99.90;;;;;;5133120;27;20272;-69
2021/11/29 01:30:57;;;;;;;10.80;5.57;;;5.40;99.90;;;;;;5133408;27;20214;-69
2021/11/29 01:33:24;;;;;;;10.10;5.37;;;5.40;99.90;;;;;;5134849;27;20191;-68
2021/11/29 01:35:52;;;;;;;9.27;4.57;;;5.40;99.90;;;;;;5134369;27;20266;-68
2021/11/29 01:38:19;;;;;;;8.73;4.73;;;5.40;99.90;;;;;;5132844;27;20258;-69
2021/11/29 01:40:46;;;;;;;8.30;5.00;;;5.50;99.90;;;;;;5134680;27;20211;-69
2021/11/29 01:43:15;;;;;;;9.27;5.13;;;5.50;99.90;;;;;;5133494;27;20219;-68
2021/11/29 01:45:46;;;;;;;8.13;4.60;;;5.50;99.90;;;;;;5134132;27;20774;-68
2021/11/29 01:48:14;;;;;;;9.37;4.73;;;5.50;99.90;;;;;;5134112;27;20656;-68
2021/11/29 01:50:44;;;;;;;6.33;3.50;;;5.60;99.90;;;;;;5134429;27;20183;-68
2021/11/29 01:53:12;;;;;;;6.60;4.27;;;5.60;99.90;;;;;;5134462;27;20225;-68
2021/11/29 01:55:41;;;;;;;5.60;3.73;;;5.60;99.90;;;;;;5132815;27;20185;-68
2021/11/29 01:58:08;;;;;;;6.17;3.77;;;5.60;99.90;;;;;;5133982;27;20192;-68
2021/11/29 02:00:39;;;;;;;6.67;4.00;;;5.60;99.90;;;;;;5134376;27;20222;-69
2021/11/29 02:03:09;;;;;;;5.93;4.27;;;5.70;99.90;;;;;;5132974;27;20223;-69
2021/11/29 02:05:36;;;;;;;8.17;3.70;;;5.70;99.90;;;;;;5132636;27;20788;-69
2021/11/29 02:08:04;;;;;;;6.73;3.63;;;5.70;99.90;;;;;;5133611;27;20552;-68
2021/11/29 02:10:33;;;;;;;5.30;3.53;;;5.70;99.90;;;;;;5132961;27;20260;-69
2021/11/29 02:13:00;;;;;;;8.27;4.20;;;5.70;99.90;;;;;;5134220;27;20242;-69
2021/11/29 02:15:27;;;;;;;6.90;4.03;;;5.70;99.90;;;;;;5133889;27;20300;-69
2021/11/29 02:17:57;;;;;;;7.23;4.60;;;5.70;99.90;;;;;;5133714;27;20208;-69
2021/11/29 02:20:30;;;;;;;6.63;3.97;;;5.70;99.90;;;;;;5040382;27;20199;-69
2021/11/29 02:22:57;;;;;;;6.17;3.90;;;5.70;99.90;;;;;;5028523;28;20200;-69
2021/11/29 02:25:24;;;;;;;6.40;3.63;;;5.70;99.90;;;;;;5028380;28;20227;-69
2021/11/29 02:27:52;;;;;;;5.73;3.73;;;5.70;99.90;;;;;;5027949;28;20241;-68
2021/11/29 02:30:23;;;;;;;13.40;6.03;;;5.70;99.90;;;;;;5029671;28;20197;-69
2021/11/29 02:32:51;;;;;;;13.80;6.43;;;5.70;99.90;;;;;;5028394;28;20203;-69
2021/11/29 02:35:20;;;;;;;11.10;5.83;;;5.70;99.90;;;;;;5029719;28;20684;-69
2021/11/29 02:37:49;;;;;;;15.00;7.57;;;5.60;99.90;;;;;;5028826;28;20182;-69
2021/11/29 02:40:16;;;;;;;19.47;9.57;;;5.60;99.90;;;;;;5027640;28;20213;-69
2021/11/29 02:42:43;;;;;;;17.57;8.50;;;5.60;99.90;;;;;;5028131;28;20286;-69
2021/11/29 02:45:10;;;;;;;19.73;9.30;;;5.50;99.90;;;;;;5028536;28;20215;-68
2021/11/29 02:47:37;;;;;;;15.93;8.07;;;5.40;99.90;;;;;;5029007;28;20310;-69
2021/11/29 02:50:05;;;;;;;13.90;6.67;;;5.40;99.90;;;;;;5028994;28;20663;-69
2021/11/29 02:52:32;;;;;;;14.20;7.03;;;5.40;99.90;;;;;;5028284;28;20237;-68
2021/11/29 02:55:00;;;;;;;14.50;7.07;;;5.40;99.90;;;;;;5028255;28;20370;-68
2021/11/29 02:57:28;;;;;;;13.50;6.70;;;5.40;99.90;;;;;;5029004;28;20282;-69
2021/11/29 02:59:55;;;;;;;12.80;7.00;;;5.50;99.90;;;;;;5029187;28;20202;-68
2021/11/29 03:02:22;;;;;;;11.87;5.80;;;5.50;99.90;;;;;;5029167;28;20275;-68
2021/11/29 03:04:50;;;;;;;9.47;5.10;;;5.50;99.90;;;;;;5028926;28;20246;-68
2021/11/29 03:07:17;;;;;;;8.60;5.00;;;5.50;99.90;;;;;;5027359;28;20269;-68
2021/11/29 03:09:45;;;;;;;9.53;4.83;;;5.50;99.90;;;;;;5027395;27;20675;-68
2021/11/29 03:12:14;;;;;;;5.87;4.10;;;5.60;99.90;;;;;;5027866;28;20199;-68
2021/11/29 03:14:42;;;;;;;12.27;6.17;;;5.60;99.90;;;;;;5027796;28;20278;-68
2021/11/29 03:17:11;;;;;;;8.87;5.20;;;5.60;99.90;;;;;;5027465;28;20184;-69
2021/11/29 03:19:40;;;;;;;10.03;5.33;;;5.60;99.90;;;;;;5028577;28;20224;-69
2021/11/29 03:22:11;;;;;;;12.10;6.50;;;5.60;99.90;;;;;;5028809;27;20720;-69
2021/11/29 03:24:43;;;;;;;7.87;4.70;;;5.60;99.90;;;;;;5028906;28;20192;-69
2021/11/29 03:27:11;;;;;;;11.03;6.13;;;5.60;99.90;;;;;;5028503;28;20219;-67
2021/11/29 03:29:40;;;;;;;16.93;8.80;;;5.60;99.90;;;;;;5028212;28;20265;-68
2021/11/29 03:32:10;;;;;;;18.87;8.57;;;5.60;99.90;;;;;;5027669;28;20286;-68
2021/11/29 03:34:37;;;;;;;16.37;8.00;;;5.50;99.90;;;;;;5027562;28;20203;-68
2021/11/29 03:37:05;;;;;;;18.37;9.13;;;5.50;99.90;;;;;;5027124;28;20188;-68
2021/11/29 03:39:32;;;;;;;17.10;8.40;;;5.50;99.90;;;;;;5026962;28;20279;-68
2021/11/29 03:42:05;;;;;;;13.07;6.67;;;5.50;99.90;;;;;;5027272;28;20486;-68
2021/11/29 03:44:33;;;;;;;17.57;8.30;;;5.50;99.90;;;;;;5029044;28;20194;-69
2021/11/29 03:47:03;;;;;;;11.23;6.53;;;5.50;99.90;;;;;;5027044;28;20226;-68
2021/11/29 03:49:32;;;;;;;13.70;7.20;;;5.50;99.90;;;;;;5026863;28;20191;-68
2021/11/29 03:52:00;;;;;;;13.37;6.80;;;5.50;99.90;;;;;;5027389;28;20274;-69
2021/11/29 03:54:27;;;;;;;10.17;5.90;;;5.50;99.90;;;;;;5027072;28;20195;-68
2021/11/29 03:56:57;;;;;;;9.77;5.70;;;5.50;99.90;;;;;;5089983;27;20586;-69
2021/11/29 03:59:24;;;;;;;9.53;5.40;;;5.50;99.90;;;;;;5130350;27;20230;-68
2021/11/29 04:01:51;;;;;;;15.07;7.60;;;5.40;99.90;;;;;;5132273;27;20209;-68
2021/11/29 04:04:20;;;;;;;21.07;10.37;;;5.40;99.90;;;;;;5132101;27;20247;-69
2021/11/29 04:06:47;;;;;;;25.57;11.90;;;5.40;99.90;;;;;;5130276;27;20241;-68
2021/11/29 04:09:14;;;;;;;16.90;9.10;;;5.40;99.90;;;;;;5131453;27;20183;-68
2021/11/29 04:11:41;;;;;;;13.83;7.80;;;5.40;99.90;;;;;;5130736;27;20276;-68
2021/11/29 04:14:08;;;;;;;17.13;8.53;;;5.40;99.90;;;;;;5130537;27;20200;-68
2021/11/29 04:16:35;;;;;;;13.37;7.10;;;5.40;99.90;;;;;;5131960;27;20279;-68
2021/11/29 04:19:03;;;;;;;13.43;6.80;;;5.50;99.90;;;;;;5129973;27;20972;-68
2021/11/29 04:21:31;;;;;;;10.93;5.93;;;5.40;99.90;;;;;;5131859;27;20596;-68
2021/11/29 04:23:58;;;;;;;7.00;4.50;;;5.50;99.90;;;;;;5131802;27;20188;-68
2021/11/29 04:26:27;;;;;;;7.97;4.53;;;5.50;99.90;;;;;;5131606;27;20204;-68
2021/11/29 04:28:55;;;;;;;5.87;4.00;;;5.50;99.90;;;;;;5130902;27;20191;-68
2021/11/29 04:31:22;;;;;;;5.50;3.87;;;5.50;99.90;;;;;;5129935;27;20203;-68
2021/11/29 04:33:49;;;;;;;7.20;4.67;;;5.60;99.90;;;;;;5131583;27;20226;-69
2021/11/29 04:36:16;;;;;;;11.63;6.00;;;5.60;99.90;;;;;;5131536;27;20245;-68
2021/11/29 04:38:44;;;;;;;11.50;5.60;;;5.60;99.90;;;;;;5131059;27;20199;-68
2021/11/29 04:41:11;;;;;;;8.97;5.00;;;5.60;99.90;;;;;;5130031;27;20599;-68
2021/11/29 04:43:38;;;;;;;8.33;4.60;;;5.60;99.90;;;;;;5131591;27;20195;-68
2021/11/29 04:46:05;;;;;;;6.13;4.17;;;5.60;99.90;;;;;;5131140;27;20235;-68
2021/11/29 04:48:33;;;;;;;6.47;4.03;;;5.60;99.90;;;;;;5131080;27;20223;-69
2021/11/29 04:51:00;;;;;;;6.57;4.00;;;5.60;99.90;;;;;;5130963;27;20254;-70
2021/11/29 04:53:27;;;;;;;5.70;4.00;;;5.60;99.90;;;;;;5130102;27;20199;-69
2021/11/29 04:55:56;;;;;;;8.63;5.00;;;5.60;99.90;;;;;;5131114;27;20267;-68
2021/11/29 04:58:23;;;;;;;12.50;6.13;;;5.60;99.90;;;;;;5129566;27;20523;-68
2021/11/29 05:00:51;;;;;;;8.63;5.30;;;5.60;99.90;;;;;;5130687;27;20239;-68
2021/11/29 05:03:19;;;;;;;7.00;4.50;;;5.60;99.90;;;;;;5130654;27;20276;-68
2021/11/29 05:05:46;;;;;;;10.03;5.67;;;5.60;99.90;;;;;;5025181;28;20198;-68
2021/11/29 05:08:14;;;;;;;13.70;6.90;;;5.60;99.90;;;;;;5025776;28;20252;-68
2021/11/29 05:10:41;;;;;;;11.77;6.03;;;5.60;99.90;;;;;;5027074;28;20188;-69
2021/11/29 05:13:10;;;;;;;9.97;5.67;;;5.60;99.90;;;;;;5025998;28;20722;-69
2021/11/29 05:15:37;;;;;;;10.23;5.20;;;5.60;99.90;;;;;;5025987;28;20190;-68
2021/11/29 05:18:04;;;;;;;7.27;4.53;;;5.60;99.90;;;;;;5025536;28;20244;-68
2021/11/29 05:20:31;;;;;;;6.30;3.90;;;5.60;99.90;;;;;;5025623;28;20275;-70
2021/11/29 05:22:58;;;;;;;9.70;5.03;;;5.60;99.90;;;;;;5025226;28;20271;-69
2021/11/29 05:25:25;;;;;;;7.20;4.67;;;5.60;99.90;;;;;;5027253;28;20598;-69
2021/11/29 05:27:52;;;;;;;6.30;4.23;;;5.60;99.90;;;;;;5026646;28;20671;-69
2021/11/29 05:30:21;;;;;;;7.63;4.30;;;5.60;99.90;;;;;;5026512;28;20221;-69
2021/11/29 05:32:49;;;;;;;7.57;4.87;;;5.60;99.90;;;;;;5027083;28;20672;-69
2021/11/29 05:35:16;;;;;;;10.03;6.23;;;5.60;99.90;;;;;;5025746;28;20192;-69
2021/11/29 05:37:43;;;;;;;11.33;6.13;;;5.60;99.90;;;;;;5025576;28;20713;-69
2021/11/29 05:40:11;;;;;;;8.33;5.10;;;5.50;99.90;;;;;;5026377;28;20184;-69
2021/11/29 05:42:38;;;;;;;8.70;4.87;;;5.50;99.90;;;;;;5025696;28;20279;-69
2021/11/29 05:45:06;;;;;;;4.97;3.90;;;5.50;99.90;;;;;;5025418;28;20593;-69
2021/11/29 05:47:35;;;;;;;6.30;4.13;;;5.50;99.90;;;;;;5026611;28;20246;-69
2021/11/29 05:50:03;;;;;;;7.60;4.17;;;5.50;99.90;;;;;;5026527;28;20200;-69
2021/11/29 05:52:30;;;;;;;6.07;3.80;;;5.50;99.90;;;;;;5026911;28;20216;-69
2021/11/29 05:54:57;;;;;;;4.73;3.57;;;5.50;99.90;;;;;;5026784;28;20188;-70
2021/11/29 05:57:24;;;;;;;5.10;3.53;;;5.50;99.90;;;;;;5025594;28;20270;-68
2021/11/29 05:59:51;;;;;;;3.73;3.10;;;5.60;99.90;;;;;;5026062;28;20221;-68
2021/11/29 06:02:19;;;;;;;2.73;2.47;;;5.60;99.90;;;;;;5026244;28;20222;-69
2021/11/29 06:04:47;;;;;;;2.83;2.50;;;5.60;99.90;;;;;;5024978;28;20227;-68
2021/11/29 06:07:14;;;;;;;5.50;3.37;;;5.60;99.90;;;;;;5026485;28;20212;-69
2021/11/29 06:09:41;;;;;;;4.23;2.67;;;5.60;99.90;;;;;;5026297;28;20275;-69
2021/11/29 06:12:09;;;;;;;3.47;2.77;;;5.60;99.90;;;;;;5026111;28;20184;-68
2021/11/29 06:14:36;;;;;;;3.10;2.80;;;5.60;99.90;;;;;;5027356;28;20228;-69
2021/11/29 06:17:03;;;;;;;4.10;3.03;;;5.60;99.90;;;;;;5028568;28;20196;-69
2021/11/29 06:19:30;;;;;;;5.87;3.67;;;5.60;99.90;;;;;;5029568;28;20191;-69
2021/11/29 06:21:59;;;;;;;10.27;5.47;;;5.60;99.90;;;;;;5029457;28;20275;-69
2021/11/29 06:24:26;;;;;;;7.90;4.90;;;5.60;99.90;;;;;;5029805;28;20244;-69
2021/11/29 06:26:53;;;;;;;11.13;6.27;;;5.60;99.90;;;;;;5028427;28;20335;-69
2021/11/29 06:29:20;;;;;;;8.90;5.77;;;5.50;99.90;;;;;;5028141;28;20618;-70
2021/11/29 06:31:47;;;;;;;10.47;5.80;;;5.40;99.90;;;;;;5029104;28;20188;-69
2021/11/29 06:34:14;;;;;;;8.40;5.23;;;5.40;99.90;;;;;;5029808;28;20721;-69
2021/11/29 06:36:41;;;;;;;9.37;5.27;;;5.40;99.90;;;;;;5028457;28;20229;-69
2021/11/29 06:39:10;;;;;;;7.77;4.73;;;5.30;99.90;;;;;;5027960;28;20223;-69
2021/11/29 06:41:37;;;;;;;6.20;4.20;;;5.40;99.90;;;;;;5027782;28;20203;-69
2021/11/29 06:44:04;;;;;;;7.63;4.60;;;5.40;99.90;;;;;;5028215;28;20560;-69
2021/11/29 06:46:32;;;;;;;11.13;6.60;;;5.40;99.90;;;;;;5029588;28;20195;-69
2021/11/29 06:49:02;;;;;;;9.27;5.80;;;5.40;99.90;;;;;;5029362;28;20187;-69
2021/11/29 06:51:30;;;;;;;11.07;5.77;;;5.30;99.90;;;;;;5027771;28;20679;-69
2021/11/29 06:53:57;;;;;;;11.30;6.23;;;5.30;99.90;;;;;;5029238;28;20528;-68
2021/11/29 06:56:25;;;;;;;6.93;4.70;;;5.30;99.90;;;;;;5028030;28;20557;-69
2021/11/29 06:58:52;;;;;;;5.90;4.07;;;5.20;99.90;;;;;;5027741;28;20289;-69
2021/11/29 07:01:19;;;;;;;4.83;3.80;;;5.30;99.90;;;;;;5027579;28;20199;-68
2021/11/29 07:03:49;;;;;;;6.50;4.13;;;5.30;99.90;;;;;;5028696;28;20258;-68
2021/11/29 07:06:16;;;;;;;9.00;5.27;;;5.40;99.90;;;;;;5027867;28;20191;-69
2021/11/29 07:08:43;;;;;;;5.93;4.30;;;5.40;99.90;;;;;;5027546;28;20692;-69
2021/11/29 07:11:10;;;;;;;10.43;5.77;;;5.40;99.90;;;;;;5028639;28;20262;-69
2021/11/29 07:13:39;;;;;;;8.63;4.90;;;5.40;99.90;;;;;;5027687;28;20227;-69
2021/11/29 07:16:06;;;;;;;6.60;4.57;;;5.30;99.90;;;;;;5027669;28;20287;-69
2021/11/29 07:18:33;;;;;;;8.87;5.07;;;5.40;99.90;;;;;;5028866;28;20220;-69
2021/11/29 07:21:00;;;;;;;9.07;5.17;;;5.40;99.90;;;;;;5027052;28;20289;-69
2021/11/29 07:23:28;;;;;;;10.50;5.80;;;5.30;99.90;;;;;;5027595;28;20197;-69
2021/11/29 07:25:55;;;;;;;9.00;5.20;;;5.30;99.90;;;;;;5028441;28;20211;-68
2021/11/29 07:28:22;;;;;;;11.50;6.80;;;5.30;99.90;;;;;;5027453;28;20283;-69
2021/11/29 07:30:51;;;;;;;11.83;6.57;;;5.30;99.90;;;;;;5028232;28;20188;-69
2021/11/29 07:33:18;;;;;;;8.73;5.20;;;5.40;99.90;;;;;;5027274;28;20295;-69
2021/11/29 07:35:45;;;;;;;9.33;5.40;;;5.40;99.90;;;;;;5027364;28;20550;-69
2021/11/29 07:38:12;;;;;;;5.67;4.37;;;5.50;99.90;;;;;;5027577;28;20212;-69
2021/11/29 07:40:41;;;;;;;5.20;4.27;;;5.60;99.90;;;;;;5028232;28;20229;-68
2021/11/29 07:43:10;;;;;;;8.70;5.43;;;5.70;99.90;;;;;;5026851;28;20202;-69
2021/11/29 07:45:39;;;;;;;8.93;4.93;;;5.70;99.90;;;;;;5027374;28;20204;-68
2021/11/29 07:48:08;;;;;;;8.03;5.00;;;5.60;99.90;;;;;;5027073;28;20300;-69
2021/11/29 07:50:35;;;;;;;10.67;5.27;;;5.60;99.90;;;;;;5026026;28;20680;-68
2021/11/29 07:53:02;;;;;;;10.80;5.30;;;5.60;99.90;;;;;;5028081;28;20672;-68
2021/11/29 07:55:30;;;;;;;11.33;5.53;;;5.60;99.90;;;;;;5028604;28;20192;-68
2021/11/29 07:57:59;;;;;;;9.90;5.73;;;5.60;99.90;;;;;;5028188;28;20667;-68
2021/11/29 08:00:28;;;;;;;12.87;6.30;;;5.60;99.90;;;;;;5026766;28;20207;-70
2021/11/29 08:02:57;;;;;;;10.10;4.90;;;5.60;99.90;;;;;;5026338;28;20275;-69
2021/11/29 08:05:27;;;;;;;9.30;5.53;;;5.60;99.90;;;;;;5028323;27;20669;-69
2021/11/29 08:07:55;;;;;;;9.30;6.03;;;5.70;99.90;;;;;;5026708;27;20212;-69
2021/11/29 08:10:23;;;;;;;9.47;5.30;;;5.70;99.90;;;;;;5026516;28;20203;-69
2021/11/29 08:12:51;;;;;;;6.13;4.30;;;5.60;99.90;;;;;;5027463;28;20192;-69
2021/11/29 08:15:19;;;;;;;7.57;4.97;;;5.70;99.90;;;;;;5026865;28;20195;-70
2021/11/29 08:17:46;;;;;;;8.03;4.50;;;5.70;99.90;;;;;;5026664;28;20191;-68
2021/11/29 08:20:15;;;;;;;6.43;4.10;;;5.70;99.90;;;;;;5027785;28;20292;-68
2021/11/29 08:22:43;;;;;;;8.33;4.10;;;5.70;99.90;;;;;;5026293;28;20213;-68
2021/11/29 08:25:10;;;;;;;8.00;4.77;;;5.70;99.90;;;;;;5026757;28;20195;-68
2021/11/29 08:27:38;;;;;;;8.00;4.93;;;5.70;99.90;;;;;;5027898;28;20633;-69
2021/11/29 08:30:08;;;;;;;10.33;5.37;;;5.70;99.90;;;;;;5026094;28;20220;-69
2021/11/29 08:32:37;;;;;;;8.87;5.40;;;5.70;99.90;;;;;;5026183;28;20196;-69
2021/11/29 08:35:05;;;;;;;10.80;5.70;;;5.80;99.90;;;;;;5027570;28;20600;-70
2021/11/29 08:37:32;;;;;;;9.30;3.83;;;5.70;99.90;;;;;;5025942;28;20237;-69
2021/11/29 08:40:01;;;;;;;4.80;3.30;;;5.80;99.90;;;;;;5026281;28;20189;-69
2021/11/29 08:42:28;;;;;;;3.87;2.40;;;5.80;99.90;;;;;;5026145;28;20199;-69
2021/11/29 08:44:56;;;;;;;3.27;1.97;;;5.80;99.90;;;;;;5026166;28;20884;-69
2021/11/29 08:47:24;;;;;;;2.80;1.80;;;5.80;99.90;;;;;;5026471;28;20658;-69
2021/11/29 08:49:51;;;;;;;1.80;1.53;;;5.90;99.90;;;;;;5027316;28;20196;-69
2021/11/29 08:52:18;;;;;;;2.57;1.67;;;5.90;99.90;;;;;;5027603;28;20279;-70
2021/11/29 08:54:45;;;;;;;3.07;1.43;;;5.90;99.90;;;;;;5027302;28;20219;-69
2021/11/29 08:57:14;;;;;;;2.50;1.70;;;5.90;99.90;;;;;;5027675;28;20184;-69
2021/11/29 08:59:41;;;;;;;2.20;2.00;;;6.00;99.90;;;;;;5027454;28;20192;-69
2021/11/29 09:02:08;;;;;;;2.07;1.90;;;6.00;99.90;;;;;;5026846;28;20195;-69
2021/11/29 09:04:36;;;;;;;4.60;2.40;;;6.00;99.90;;;;;;5027068;28;20307;-69
2021/11/29 09:07:04;;;;;;;2.00;1.80;;;6.10;99.90;;;;;;5027150;28;20736;-69
2021/11/29 09:09:32;;;;;;;3.40;2.10;;;6.10;99.90;;;;;;5027627;28;20189;-69
2021/11/29 09:12:02;;;;;;;2.63;1.90;;;6.10;99.90;;;;;;5025482;28;20197;-69
2021/11/29 09:14:33;;;;;;;1.50;1.40;;;6.10;99.90;;;;;;5027280;28;20201;-69
2021/11/29 09:17:01;;;;;;;1.97;1.70;;;6.20;99.90;;;;;;5025985;28;20289;-69
2021/11/29 09:19:28;;;;;;;1.73;1.63;;;6.20;99.90;;;;;;5026054;28;20288;-69
2021/11/29 09:21:56;;;;;;;3.03;1.40;;;6.20;99.90;;;;;;5026389;28;20215;-69
2021/11/29 09:24:23;;;;;;;1.83;1.47;;;6.10;99.90;;;;;;5027045;28;20324;-69
2021/11/29 09:26:50;;;;;;;1.77;1.40;;;6.10;99.90;;;;;;5027031;28;20192;-69
2021/11/29 09:29:17;;;;;;;1.50;1.40;;;6.10;99.90;;;;;;5025845;28;20783;-69
2021/11/29 09:31:46;;;;;;;2.43;1.10;;;6.20;99.90;;;;;;5026558;28;20242;-69
2021/11/29 09:34:13;;;;;;;2.27;1.83;;;6.20;99.90;;;;;;5025427;28;20199;-69
2021/11/29 09:36:40;;;;;;;2.93;1.67;;;6.20;99.90;;;;;;5024959;28;20194;-69
2021/11/29 09:39:08;;;;;;;1.50;1.40;;;6.30;99.90;;;;;;5026963;28;20188;-69
2021/11/29 09:41:36;;;;;;;1.67;1.20;;;6.30;99.90;;;;;;5025386;28;20192;-69
2021/11/29 09:44:04;;;;;;;2.27;1.43;;;6.30;99.90;;;;;;5026779;28;20192;-69
2021/11/29 09:46:32;;;;;;;2.03;1.70;;;6.30;99.90;;;;;;5025815;28;20235;-69
2021/11/29 09:49:03;;;;;;;2.23;1.60;;;6.40;99.90;;;;;;5029478;28;20213;-70
2021/11/29 09:51:31;;;;;;;1.40;1.30;;;6.40;99.90;;;;;;5030255;28;20197;-70
2021/11/29 09:53:58;;;;;;;2.30;1.30;;;6.50;99.90;;;;;;5028588;28;20201;-70
2021/11/29 09:56:26;;;;;;;1.37;1.27;;;6.50;99.90;;;;;;5029147;28;20629;-70
2021/11/29 09:58:53;;;;;;;1.53;1.43;;;6.60;99.90;;;;;;5028876;28;20675;-70
2021/11/29 10:01:20;;;;;;;1.37;1.27;;;6.60;99.90;;;;;;5028657;28;20216;-70
2021/11/29 10:03:48;;;;;;;2.20;1.73;;;6.70;99.90;;;;;;5027968;28;20731;-69
2021/11/29 10:06:16;;;;;;;2.47;1.60;;;6.80;99.90;;;;;;5030357;28;20663;-68
2021/11/29 10:08:43;;;;;;;1.77;1.57;;;6.80;99.90;;;;;;5030259;28;20213;-69
2021/11/29 10:11:13;;;;;;;1.53;1.33;;;6.80;99.90;;;;;;5029980;28;20236;-68
2021/11/29 10:13:49;;;;;;;2.77;1.80;;;6.80;99.90;;;;;;5028234;28;20262;-69
2021/11/29 10:16:38;;;;;;;2.33;1.53;;;6.90;99.90;;;;;;5030022;28;20750;-69
2021/11/29 10:19:07;;;;;;;1.50;1.40;;;6.90;99.90;;;;;;5028618;28;20652;-70
2021/11/29 10:21:36;;;;;;;3.90;1.50;;;6.90;99.90;;;;;;5029654;28;20191;-69
2021/11/29 10:24:04;;;;;;;2.80;1.43;;;6.80;99.90;;;;;;5027915;28;20195;-69
2021/11/29 10:26:36;;;;;;;2.87;2.10;;;6.80;99.90;;;;;;5028720;28;20190;-69
2021/11/29 10:29:06;;;;;;;1.70;1.40;;;6.80;99.90;;;;;;5029073;28;20231;-69
2021/11/29 10:31:38;;;;;;;3.77;1.20;;;6.80;99.90;;;;;;5028334;28;20199;-68
2021/11/29 10:34:07;;;;;;;7.80;1.50;;;6.70;99.90;;;;;;5029025;28;20234;-69
2021/11/29 10:36:38;;;;;;;3.23;1.30;;;6.70;99.90;;;;;;5028426;28;20315;-69
2021/11/29 10:39:09;;;;;;;2.33;1.73;;;6.70;99.90;;;;;;5029467;28;20217;-68
2021/11/29 10:41:39;;;;;;;1.83;1.57;;;6.80;99.90;;;;;;5029454;28;20197;-68
2021/11/29 10:44:09;;;;;;;1.97;1.77;;;6.70;99.90;;;;;;5028948;27;20207;-69
2021/11/29 10:46:38;;;;;;;5.60;1.70;;;6.70;99.90;;;;;;5029630;28;20701;-68
2021/11/29 10:49:08;;;;;;;2.37;2.00;;;6.70;99.90;;;;;;5028030;28;20240;-69
2021/11/29 10:51:38;;;;;;;5.40;1.60;;;6.80;99.90;;;;;;5029145;28;20286;-70
2021/11/29 10:54:08;;;;;;;2.40;1.20;;;6.80;99.90;;;;;;5027345;28;20774;-69
2021/11/29 10:56:38;;;;;;;0.90;0.90;;;6.80;99.90;;;;;;5029444;28;20206;-68
2021/11/29 10:59:09;;;;;;;1.93;0.97;;;6.80;99.90;;;;;;5028740;28;20221;-69
2021/11/29 11:01:42;;;;;;;1.67;1.30;;;6.80;99.90;;;;;;5027931;28;20204;-69
2021/11/29 11:04:15;;;;;;;3.47;1.40;;;6.80;99.90;;;;;;5027105;28;20225;-69
2021/11/29 11:06:45;;;;;;;1.50;1.40;;;6.80;99.90;;;;;;5029025;28;20221;-71
2021/11/29 11:09:15;;;;;;;3.10;1.67;;;6.80;99.90;;;;;;5026813;28;20214;-71
2021/11/29 11:11:45;;;;;;;2.50;1.90;;;6.70;99.90;;;;;;5029012;28;20189;-72
2021/11/29 11:14:16;;;;;;;1.80;1.70;;;6.70;99.90;;;;;;5026227;28;20499;-69
2021/11/29 11:16:47;;;;;;;1.90;1.70;;;6.70;99.90;;;;;;5029163;27;20615;-69
2021/11/29 11:19:26;;;;;;;1.90;1.70;;;6.80;99.90;;;;;;5029047;28;20190;-69
2021/11/29 11:21:55;;;;;;;1.70;1.30;;;6.80;99.90;;;;;;5028698;28;21050;-68
2021/11/29 11:24:27;;;;;;;1.50;1.40;;;6.80;99.90;;;;;;5027970;28;20237;-69
2021/11/29 11:26:57;;;;;;;4.03;1.50;;;6.80;99.90;;;;;;5025866;28;20707;-69
2021/11/29 11:29:52;;;;;;;4.10;1.80;;;6.80;99.90;;;;;;5029139;28;20314;-70
2021/11/29 11:32:26;;;;;;;2.73;1.90;;;6.80;99.90;;;;;;5028426;28;20198;-71
2021/11/29 11:34:55;;;;;;;1.80;1.40;;;6.80;99.90;;;;;;5026899;28;20584;-69
2021/11/29 11:37:25;;;;;;;2.13;1.40;;;6.80;99.90;;;;;;5028706;28;20592;-70
2021/11/29 11:39:54;;;;;;;1.27;1.17;;;6.70;99.90;;;;;;5060500;27;20505;-69
2021/11/29 11:42:21;;;;;;;3.80;1.40;;;6.70;99.90;;;;;;5118264;27;20189;-68
2021/11/29 11:44:49;;;;;;;1.47;1.30;;;6.80;99.90;;;;;;5132044;27;20239;-69
2021/11/29 11:47:16;;;;;;;3.70;1.87;;;6.70;99.90;;;;;;5132531;27;20278;-68
2021/11/29 11:49:45;;;;;;;3.73;1.00;;;6.70;99.90;;;;;;5026221;28;20713;-69
2021/11/29 11:52:16;;;;;;;1.23;0.93;;;6.70;99.90;;;;;;5026948;28;20596;-70
2021/11/29 11:54:45;;;;;;;3.07;1.27;;;6.70;99.90;;;;;;5028003;28;20301;-69
2021/11/29 11:57:15;;;;;;;2.27;1.47;;;6.70;99.90;;;;;;5027168;28;20238;-70
2021/11/29 12:00:12;;;;;;;1.80;1.10;;;6.70;99.90;;;;;;5028537;28;20959;-70
2021/11/29 12:03:07;;;;;;;2.13;1.10;;;6.60;99.90;;;;;;5029567;28;20293;-70
2021/11/29 12:05:36;;;;;;;2.43;0.87;;;6.70;99.90;;;;;;5027814;28;20253;-70
2021/11/29 12:08:06;;;;;;;1.23;1.07;;;6.60;99.90;;;;;;5026841;28;20220;-70
2021/11/29 12:10:43;;;;;;;1.00;0.90;;;6.60;99.90;;;;;;5028089;27;20201;-72
